createdAt,value
2022-10-16T00:00:59.543Z,29.33
2022-10-16T00:03:29.567Z,32.58
2022-10-16T00:06:01.474Z,29.15
2022-10-16T00:08:29.201Z,28.42
2022-10-16T00:11:07.532Z,27.67
2022-10-16T00:13:35.965Z,34.55
2022-10-16T00:16:03.649Z,31.52
2022-10-16T00:18:31.276Z,26.42
2022-10-16T00:21:07.556Z,29.70
2022-10-16T00:28:30.314Z,29.60
2022-10-16T00:30:58.031Z,26.52
2022-10-16T00:33:25.890Z,27.25
2022-10-16T00:35:52.905Z,32.65
2022-10-16T00:38:19.775Z,27.50
2022-10-16T00:40:46.729Z,28.77
2022-10-16T00:43:32.649Z,29.85
2022-10-16T00:46:00.852Z,29.20
2022-10-16T00:48:27.975Z,27.85
2022-10-16T00:50:55.187Z,26.02
2022-10-16T00:53:23.278Z,24.40
2022-10-16T00:55:50.315Z,30.55
2022-10-16T00:58:17.279Z,27.95
2022-10-16T01:00:44.204Z,32.60
2022-10-16T01:03:35.576Z,27.05
2022-10-16T01:06:09.147Z,26.85
2022-10-16T01:08:42.299Z,28.65
2022-10-16T01:11:18.884Z,27.83
2022-10-16T01:13:53.196Z,29.58
2022-10-16T01:16:32.127Z,29.38
2022-10-16T01:19:09.877Z,30.42
2022-10-16T01:21:41.669Z,29.35
2022-10-16T01:24:39.819Z,29.92
2022-10-16T01:27:31.796Z,32.20
2022-10-16T01:30:24.164Z,32.05
2022-10-16T01:32:57.237Z,33.70
2022-10-16T01:35:36.098Z,31.52
2022-10-16T01:38:08.779Z,31.95
2022-10-16T01:40:39.326Z,28.80
2022-10-16T01:43:08.467Z,34.22
2022-10-16T01:45:36.930Z,33.55
2022-10-16T01:48:08.959Z,33.03
2022-10-16T01:50:40.987Z,33.92
2022-10-16T01:53:12.002Z,33.15
2022-10-16T01:55:45.960Z,39.22
2022-10-16T01:58:14.433Z,33.60
2022-10-16T02:00:44.776Z,35.80
2022-10-16T02:03:13.792Z,33.80
2022-10-16T02:05:50.122Z,34.72
2022-10-16T02:13:17.154Z,35.28
2022-10-16T02:15:44.245Z,34.00
2022-10-16T02:18:12.010Z,32.10
2022-10-16T02:20:52.140Z,34.78
2022-10-16T02:23:32.834Z,32.88
2022-10-16T02:26:02.179Z,34.08
2022-10-16T02:28:43.224Z,34.78
2022-10-16T02:31:12.777Z,38.25
2022-10-16T02:33:43.367Z,32.95
2022-10-16T02:36:11.455Z,33.30
2022-10-16T02:38:40.965Z,33.38
2022-10-16T02:41:08.261Z,36.70
2022-10-16T02:43:35.564Z,34.90
2022-10-16T02:46:02.529Z,32.85
2022-10-16T02:48:29.403Z,34.72
2022-10-16T02:50:56.339Z,30.80
2022-10-16T02:53:23.322Z,32.20
2022-10-16T02:55:50.181Z,32.05
2022-10-16T02:58:17.036Z,36.10
2022-10-16T03:00:44.151Z,38.33
2022-10-16T03:03:11.162Z,33.35
2022-10-16T03:05:38.025Z,33.95
2022-10-16T03:08:05.016Z,32.13
2022-10-16T03:10:32.083Z,33.35
2022-10-16T03:12:59.062Z,35.92
2022-10-16T03:15:26.924Z,39.05
2022-10-16T03:17:53.894Z,33.28
2022-10-16T03:20:20.792Z,33.65
2022-10-16T03:22:47.801Z,40.83
2022-10-16T03:25:14.696Z,36.20
2022-10-16T03:27:41.547Z,35.80
2022-10-16T03:30:09.307Z,34.42
2022-10-16T03:35:03.181Z,32.78
2022-10-16T03:37:30.431Z,32.40
2022-10-16T03:39:57.337Z,32.53
2022-10-16T03:42:25.557Z,34.60
2022-10-16T03:44:52.479Z,29.17
2022-10-16T03:47:22.746Z,30.95
2022-10-16T03:49:50.334Z,28.58
2022-10-16T03:54:44.574Z,29.77
2022-10-16T03:57:11.417Z,29.48
2022-10-16T03:59:38.279Z,29.92
2022-10-16T04:02:05.191Z,28.77
2022-10-16T04:04:32.024Z,27.58
2022-10-16T04:06:58.936Z,29.52
2022-10-16T04:09:25.829Z,30.02
2022-10-16T04:11:52.793Z,29.85
2022-10-16T04:14:19.981Z,30.98
2022-10-16T04:16:46.947Z,31.95
2022-10-16T04:19:14.372Z,33.72
2022-10-16T04:21:41.280Z,33.92
2022-10-16T04:24:08.185Z,32.63
2022-10-16T04:26:35.120Z,34.42
2022-10-16T04:29:02.006Z,37.72
2022-10-16T04:31:28.886Z,40.35
2022-10-16T04:33:56.186Z,41.38
2022-10-16T04:36:25.405Z,36.13
2022-10-16T04:38:55.357Z,37.63
2022-10-16T04:41:22.476Z,39.17
2022-10-16T04:43:49.840Z,40.15
2022-10-16T04:46:17.139Z,40.65
2022-10-16T04:48:43.984Z,45.85
2022-10-16T04:51:11.730Z,46.50
2022-10-16T04:53:38.783Z,44.30
2022-10-16T04:56:07.147Z,44.42
2022-10-16T04:58:34.291Z,46.35
2022-10-16T05:01:01.632Z,46.20
2022-10-16T05:03:28.595Z,49.05
2022-10-16T05:05:55.768Z,53.08
2022-10-16T05:08:22.852Z,51.75
2022-10-16T05:10:50.069Z,52.35
2022-10-16T05:13:16.928Z,51.60
2022-10-16T05:15:47.552Z,49.10
2022-10-16T05:18:14.679Z,60.78
2022-10-16T05:20:43.344Z,58.22
2022-10-16T05:23:11.334Z,54.25
2022-10-16T05:25:38.685Z,67.93
2022-10-16T05:28:05.759Z,60.72
2022-10-16T05:30:32.838Z,65.50
2022-10-16T05:33:00.248Z,68.72
2022-10-16T05:35:27.576Z,53.60
2022-10-16T05:37:54.979Z,56.17
2022-10-16T05:40:22.019Z,55.55
2022-10-16T05:42:49.257Z,59.83
2022-10-16T05:45:16.366Z,60.05
2022-10-16T05:47:43.544Z,56.38
2022-10-16T05:50:10.520Z,44.58
2022-10-16T05:52:37.517Z,49.08
2022-10-16T05:55:05.088Z,52.75
2022-10-16T05:57:32.260Z,49.72
2022-10-16T05:59:59.395Z,51.08
2022-10-16T06:02:26.523Z,51.88
2022-10-16T06:04:56.529Z,60.10
2022-10-16T06:07:24.803Z,50.55
2022-10-16T06:09:53.638Z,48.40
2022-10-16T06:12:20.975Z,48.70
2022-10-16T06:14:48.547Z,50.40
2022-10-16T06:17:16.092Z,47.50
2022-10-16T06:19:43.301Z,50.30
2022-10-16T06:22:10.568Z,51.42
2022-10-16T06:24:38.321Z,48.20
2022-10-16T06:27:06.021Z,55.38
2022-10-16T06:29:33.352Z,55.22
2022-10-16T06:32:00.346Z,58.10
2022-10-16T06:34:27.310Z,53.50
2022-10-16T06:36:54.626Z,46.60
2022-10-16T06:39:21.857Z,49.35
2022-10-16T06:41:49.379Z,47.65
2022-10-16T06:44:17.294Z,48.00
2022-10-16T06:46:44.365Z,48.30
2022-10-16T06:49:11.908Z,51.90
2022-10-16T06:51:43.750Z,53.63
2022-10-16T06:54:11.739Z,51.30
2022-10-16T06:56:39.155Z,52.63
2022-10-16T06:59:06.716Z,54.88
2022-10-16T07:01:34.244Z,47.67
2022-10-16T07:04:02.546Z,50.60
2022-10-16T07:06:34.467Z,46.35
2022-10-16T07:09:04.734Z,45.50
2022-10-16T07:11:32.217Z,48.03
2022-10-16T07:13:59.875Z,50.13
2022-10-16T07:16:32.214Z,46.60
2022-10-16T07:19:01.684Z,46.15
2022-10-16T07:21:31.561Z,45.53
2022-10-16T07:24:02.586Z,43.05
2022-10-16T07:26:32.469Z,49.13
2022-10-16T07:28:59.788Z,47.55
2022-10-16T07:31:27.581Z,48.75
2022-10-16T07:33:55.543Z,47.75
2022-10-16T07:36:23.175Z,49.72
2022-10-16T07:38:52.884Z,43.25
2022-10-16T07:41:22.641Z,44.80
2022-10-16T07:43:53.022Z,45.13
2022-10-16T07:46:21.950Z,48.33
2022-10-16T07:48:49.668Z,56.63
2022-10-16T07:51:19.210Z,46.92
2022-10-16T07:53:48.909Z,48.97
2022-10-16T07:56:17.587Z,49.08
2022-10-16T07:58:45.050Z,46.03
2022-10-16T08:01:14.707Z,50.60
2022-10-16T08:03:47.889Z,47.15
2022-10-16T08:06:15.818Z,44.28
2022-10-16T08:08:42.764Z,43.45
2022-10-16T08:11:10.153Z,46.28
2022-10-16T08:13:38.123Z,43.85
2022-10-16T08:16:09.027Z,48.50
2022-10-16T08:18:37.797Z,49.47
2022-10-16T08:21:06.083Z,48.65
2022-10-16T08:23:34.852Z,48.70
2022-10-16T08:26:07.201Z,44.88
2022-10-16T08:28:34.672Z,51.53
2022-10-16T08:31:10.251Z,49.95
2022-10-16T08:33:38.148Z,53.92
2022-10-16T08:36:06.722Z,45.40
2022-10-16T08:38:34.945Z,49.63
2022-10-16T08:41:10.930Z,49.20
2022-10-16T08:43:56.194Z,50.28
2022-10-16T08:46:44.759Z,49.35
2022-10-16T08:49:15.311Z,53.45
2022-10-16T08:51:44.336Z,47.92
2022-10-16T08:54:17.598Z,52.70
2022-10-16T08:56:44.807Z,50.78
2022-10-16T08:59:15.136Z,56.80
2022-10-16T09:01:50.194Z,51.72
2022-10-16T09:05:08.577Z,56.67
2022-10-16T09:10:48.615Z,57.03
2022-10-16T09:14:12.065Z,49.90
2022-10-16T09:16:47.743Z,52.10
2022-10-16T09:19:20.606Z,45.03
2022-10-16T09:21:50.147Z,53.63
2022-10-16T09:24:23.396Z,47.30
2022-10-16T09:26:53.503Z,48.97
2022-10-16T09:29:22.745Z,55.33
2022-10-16T09:31:49.899Z,52.67
2022-10-16T09:34:30.671Z,53.88
2022-10-16T09:37:00.175Z,58.47
2022-10-16T09:39:27.367Z,53.05
2022-10-16T09:41:56.356Z,51.55
2022-10-16T09:44:32.198Z,56.42
2022-10-16T09:47:06.543Z,53.65
2022-10-16T09:49:34.075Z,48.55
2022-10-16T09:52:18.211Z,51.50
2022-10-16T09:54:59.814Z,47.38
2022-10-16T09:57:27.739Z,48.75
2022-10-16T09:59:56.985Z,51.38
2022-10-16T10:02:35.222Z,51.80
2022-10-16T10:05:03.129Z,54.65
2022-10-16T10:07:37.480Z,49.45
2022-10-16T10:10:07.250Z,48.60
2022-10-16T10:12:37.601Z,57.63
2022-10-16T10:15:22.447Z,54.40
2022-10-16T10:17:59.694Z,47.30
2022-10-16T10:20:32.532Z,55.28
2022-10-16T10:23:00.130Z,48.95
2022-10-16T10:25:53.106Z,56.70
2022-10-16T10:28:24.008Z,46.33
2022-10-16T10:31:12.213Z,47.38
2022-10-16T10:34:00.163Z,44.30
2022-10-16T10:36:42.046Z,45.63
2022-10-16T10:39:40.765Z,49.22
2022-10-16T10:42:28.779Z,48.63
2022-10-16T10:45:08.630Z,47.22
2022-10-16T10:48:13.616Z,46.67
2022-10-16T10:50:49.835Z,46.08
2022-10-16T10:55:53.241Z,43.28
2022-10-16T10:58:48.366Z,41.80
2022-10-16T11:01:26.870Z,38.35
2022-10-16T11:04:12.991Z,38.60
2022-10-16T11:06:50.811Z,37.35
2022-10-16T11:09:32.182Z,42.58
2022-10-16T11:11:59.686Z,39.72
2022-10-16T11:14:40.448Z,43.25
2022-10-16T11:17:14.978Z,38.60
2022-10-16T11:20:02.994Z,38.67
2022-10-16T11:22:48.341Z,40.75
2022-10-16T11:25:23.361Z,45.20
2022-10-16T11:28:31.848Z,36.03
2022-10-16T11:31:09.642Z,38.50
2022-10-16T11:33:45.515Z,45.40
2022-10-16T11:36:39.519Z,45.20
2022-10-16T11:39:23.242Z,37.53
2022-10-16T11:42:20.629Z,36.35
2022-10-16T11:45:15.060Z,33.75
2022-10-16T11:48:24.549Z,37.17
2022-10-16T11:50:53.885Z,34.55
2022-10-16T11:53:23.920Z,33.70
2022-10-16T11:55:51.456Z,38.78
2022-10-16T11:58:30.722Z,35.90
2022-10-16T12:01:20.512Z,33.70
2022-10-16T12:04:18.920Z,39.60
2022-10-16T12:06:56.803Z,44.08
2022-10-16T12:09:33.519Z,42.20
2022-10-16T12:12:00.979Z,38.88
2022-10-16T12:14:51.751Z,41.13
2022-10-16T12:17:37.480Z,39.05
2022-10-16T12:20:13.546Z,41.80
2022-10-16T12:22:52.447Z,38.40
2022-10-16T12:25:47.434Z,47.13
2022-10-16T12:28:17.729Z,36.45
2022-10-16T12:31:13.650Z,38.03
2022-10-16T12:33:59.423Z,37.38
2022-10-16T12:36:36.004Z,39.33
2022-10-16T12:39:03.806Z,37.28
2022-10-16T12:41:33.475Z,34.92
2022-10-16T12:44:05.033Z,35.95
2022-10-16T12:46:31.881Z,36.58
2022-10-16T12:49:15.044Z,38.53
2022-10-16T12:51:43.612Z,35.38
2022-10-16T12:54:15.774Z,33.70
2022-10-16T12:56:49.259Z,36.00
2022-10-16T12:59:28.391Z,33.42
2022-10-16T13:02:33.133Z,37.95
2022-10-16T13:05:20.320Z,32.45
2022-10-16T13:07:57.067Z,30.85
2022-10-16T13:10:31.439Z,35.10
2022-10-16T13:13:07.029Z,31.77
2022-10-16T13:15:37.215Z,34.40
2022-10-16T13:18:22.922Z,35.33
2022-10-16T13:21:11.983Z,41.95
2022-10-16T13:23:57.749Z,40.70
2022-10-16T13:26:31.507Z,38.30
2022-10-16T13:29:03.452Z,37.05
2022-10-16T13:31:32.584Z,36.60
2022-10-16T13:34:01.967Z,35.38
2022-10-16T13:36:33.744Z,36.83
2022-10-16T13:39:11.492Z,34.97
2022-10-16T13:41:38.945Z,43.53
2022-10-16T13:44:14.131Z,43.33
2022-10-16T13:46:41.127Z,38.53
2022-10-16T13:49:20.592Z,40.13
2022-10-16T13:51:59.619Z,36.78
2022-10-16T13:54:30.931Z,35.05
2022-10-16T13:57:22.588Z,32.80
2022-10-16T13:59:53.407Z,33.45
2022-10-16T14:02:24.609Z,36.28
2022-10-16T14:04:52.574Z,33.45
2022-10-16T14:07:27.533Z,32.17
2022-10-16T14:09:56.651Z,34.45
2022-10-16T14:12:27.979Z,35.95
2022-10-16T14:14:58.323Z,32.75
2022-10-16T14:17:35.415Z,36.22
2022-10-16T14:20:07.338Z,35.45
2022-10-16T14:22:42.969Z,30.50
2022-10-16T14:25:27.732Z,31.90
2022-10-16T14:28:23.390Z,28.60
2022-10-16T14:31:02.619Z,32.58
2022-10-16T14:33:34.895Z,28.40
2022-10-16T14:36:15.251Z,30.10
2022-10-16T14:38:45.447Z,29.77
2022-10-16T14:41:13.236Z,31.05
2022-10-16T14:43:43.543Z,35.17
2022-10-16T14:48:56.997Z,38.55
2022-10-16T14:51:24.115Z,44.78
2022-10-16T14:53:51.533Z,45.78
2022-10-16T14:56:25.608Z,45.83
2022-10-16T14:58:57.511Z,47.55
2022-10-16T15:01:28.689Z,46.50
2022-10-16T15:03:56.751Z,46.97
2022-10-16T15:06:23.982Z,50.92
2022-10-16T15:08:51.116Z,47.90
2022-10-16T15:11:19.941Z,51.30
2022-10-16T15:13:47.614Z,54.33
2022-10-16T15:16:17.571Z,63.70
2022-10-16T15:18:45.472Z,54.63
2022-10-16T15:21:38.832Z,50.65
2022-10-16T15:24:14.294Z,51.80
2022-10-16T15:26:44.016Z,44.47
2022-10-16T15:29:11.097Z,57.03
2022-10-16T15:31:39.072Z,49.20
2022-10-16T15:34:07.260Z,48.17
2022-10-16T15:36:39.284Z,51.60
2022-10-16T15:39:20.811Z,42.75
2022-10-16T15:41:52.200Z,39.40
2022-10-16T15:44:20.498Z,42.83
2022-10-16T15:46:48.252Z,40.08
2022-10-16T15:49:16.022Z,40.80
2022-10-16T15:51:44.643Z,42.90
2022-10-16T15:54:11.852Z,43.15
2022-10-16T15:56:39.271Z,42.10
2022-10-16T15:59:07.570Z,45.08
2022-10-16T16:01:36.350Z,40.35
2022-10-16T16:04:11.054Z,46.67
2022-10-16T16:06:47.469Z,46.85
2022-10-16T16:09:15.830Z,45.00
2022-10-16T16:11:43.536Z,43.63
2022-10-16T16:14:14.974Z,45.28
2022-10-16T16:16:42.849Z,39.53
2022-10-16T16:19:12.870Z,48.55
2022-10-16T16:21:40.833Z,48.58
2022-10-16T16:24:09.527Z,42.90
2022-10-16T16:26:41.317Z,43.95
2022-10-16T16:29:08.430Z,43.13
2022-10-16T16:31:36.164Z,41.17
2022-10-16T16:34:04.187Z,46.15
2022-10-16T16:36:31.340Z,50.10
2022-10-16T16:38:59.381Z,45.95
2022-10-16T16:41:29.820Z,46.72
2022-10-16T16:44:03.198Z,43.90
2022-10-16T16:46:30.734Z,42.67
2022-10-16T16:49:00.424Z,41.45
2022-10-16T16:51:28.580Z,40.15
2022-10-16T16:53:57.469Z,34.03
2022-10-16T16:56:26.377Z,37.53
2022-10-16T16:58:58.231Z,33.15
2022-10-16T17:01:28.015Z,35.33
2022-10-16T17:03:56.908Z,37.25
2022-10-16T17:06:28.951Z,33.92
2022-10-16T17:08:56.803Z,31.42
2022-10-16T17:11:27.411Z,30.42
2022-10-16T17:13:57.450Z,35.67
2022-10-16T17:16:27.627Z,27.95
2022-10-16T17:18:55.578Z,27.60
2022-10-16T17:21:23.135Z,30.15
2022-10-16T17:23:53.131Z,29.60
2022-10-16T17:26:20.807Z,26.65
2022-10-16T17:28:56.170Z,27.50
2022-10-16T17:31:31.388Z,27.30
2022-10-16T17:34:02.638Z,23.77
2022-10-16T17:36:33.464Z,25.52
2022-10-16T17:39:04.919Z,22.85
2022-10-16T17:41:33.543Z,25.20
2022-10-16T17:44:01.341Z,21.87
2022-10-16T17:46:28.890Z,22.75
2022-10-16T17:48:56.651Z,23.98
2022-10-16T17:51:36.434Z,26.30
2022-10-16T17:54:04.456Z,21.83
2022-10-16T17:56:32.649Z,26.08
2022-10-16T17:59:02.793Z,25.80
2022-10-16T18:01:33.416Z,23.33
2022-10-16T18:04:07.809Z,30.27
2022-10-16T18:06:36.232Z,27.35
2022-10-16T18:09:08.011Z,27.38
2022-10-16T18:11:36.209Z,30.17
2022-10-16T18:14:07.005Z,30.77
2022-10-16T18:16:38.851Z,26.48
2022-10-16T18:19:07.673Z,29.48
2022-10-16T18:21:35.000Z,33.60
2022-10-16T18:24:02.614Z,32.28
2022-10-16T18:26:30.556Z,29.65
2022-10-16T18:28:59.064Z,30.92
2022-10-16T18:31:27.202Z,31.02
2022-10-16T18:33:56.650Z,32.47
2022-10-16T18:36:29.920Z,32.20
2022-10-16T18:38:58.775Z,30.33
2022-10-16T18:41:27.149Z,34.97
2022-10-16T18:43:56.576Z,33.67
2022-10-16T18:46:24.585Z,29.60
2022-10-16T18:48:55.935Z,30.08
2022-10-16T18:51:30.168Z,32.92
2022-10-16T18:54:01.291Z,33.58
2022-10-16T18:56:31.186Z,31.73
2022-10-16T18:59:03.198Z,39.08
2022-10-16T19:01:33.095Z,38.58
2022-10-16T19:04:04.004Z,34.67
2022-10-16T19:06:36.247Z,33.70
2022-10-16T19:09:04.175Z,30.90
2022-10-16T19:11:34.104Z,36.15
2022-10-16T19:14:03.373Z,38.95
2022-10-16T19:16:35.670Z,35.78
2022-10-16T19:19:08.819Z,35.00
2022-10-16T19:21:41.158Z,37.35
2022-10-16T19:24:11.325Z,37.05
2022-10-16T19:26:41.213Z,33.53
2022-10-16T19:29:10.732Z,37.63
2022-10-16T19:31:38.278Z,36.80
2022-10-16T19:34:10.133Z,35.33
2022-10-16T19:36:40.752Z,32.92
2022-10-16T19:39:13.628Z,31.98
2022-10-16T19:41:42.163Z,36.70
2022-10-16T19:44:12.660Z,37.13
2022-10-16T19:46:39.763Z,35.65
2022-10-16T19:49:10.290Z,32.60
2022-10-16T19:51:38.546Z,34.20
2022-10-16T19:54:08.813Z,37.25
2022-10-16T19:56:37.660Z,38.65
2022-10-16T19:59:07.470Z,37.78
2022-10-16T20:01:35.210Z,41.03
2022-10-16T20:04:02.684Z,34.95
2022-10-16T20:06:29.833Z,35.53
2022-10-16T20:08:58.333Z,37.40
2022-10-16T20:11:31.402Z,36.67
2022-10-16T20:13:58.835Z,32.50
2022-10-16T20:16:27.111Z,37.80
2022-10-16T20:18:54.943Z,39.75
2022-10-16T20:21:27.951Z,34.15
2022-10-16T20:23:55.801Z,30.20
2022-10-16T20:26:26.112Z,37.70
2022-10-16T20:28:54.430Z,35.45
2022-10-16T20:31:24.167Z,29.15
2022-10-16T20:33:53.373Z,33.10
2022-10-16T20:36:22.744Z,33.33
2022-10-16T20:38:49.951Z,32.35
2022-10-16T20:41:19.097Z,30.13
2022-10-16T20:43:48.577Z,29.70
2022-10-16T20:46:18.480Z,31.60
2022-10-16T20:48:47.048Z,29.80
2022-10-16T20:51:16.091Z,29.13
2022-10-16T20:53:45.549Z,28.95
2022-10-16T20:56:13.493Z,29.65
2022-10-16T20:58:41.214Z,31.58
2022-10-16T21:01:11.068Z,32.42
2022-10-16T21:03:38.214Z,32.90
2022-10-16T21:06:07.413Z,32.97
2022-10-16T21:08:42.606Z,34.55
2022-10-16T21:11:15.405Z,34.42
2022-10-16T21:13:43.240Z,32.13
2022-10-16T21:16:11.951Z,33.35
2022-10-16T21:18:44.528Z,35.05
2022-10-16T21:21:20.756Z,30.65
2022-10-16T21:23:48.850Z,34.88
2022-10-16T21:26:18.250Z,28.45
2022-10-16T21:28:45.711Z,37.72
2022-10-16T21:31:22.473Z,33.75
2022-10-16T21:33:50.598Z,28.80
2022-10-16T21:36:29.578Z,31.23
2022-10-16T21:39:00.755Z,33.28
2022-10-16T21:41:29.607Z,31.67
2022-10-16T21:43:57.978Z,29.40
2022-10-16T21:46:27.434Z,30.17
2022-10-16T21:48:58.151Z,31.50
2022-10-16T21:51:34.467Z,28.35
2022-10-16T21:56:29.224Z,32.13
2022-10-16T21:58:56.435Z,29.48
2022-10-16T22:01:24.950Z,29.10
2022-10-16T22:03:52.406Z,27.52
2022-10-16T22:08:50.335Z,30.55
2022-10-16T22:11:23.419Z,29.27
2022-10-16T22:13:54.056Z,32.38
2022-10-16T22:16:25.343Z,27.58
2022-10-16T22:18:54.032Z,29.27
2022-10-16T22:21:21.272Z,26.17
2022-10-16T22:23:48.647Z,28.52
2022-10-16T22:26:15.779Z,27.15
2022-10-16T22:28:43.321Z,26.73
2022-10-16T22:31:14.487Z,28.45
2022-10-16T22:33:42.501Z,26.98
2022-10-16T22:36:13.059Z,25.73
2022-10-16T22:38:40.385Z,21.58
2022-10-16T22:41:09.708Z,23.50
2022-10-16T22:43:42.873Z,21.60
2022-10-16T22:46:12.380Z,25.58
2022-10-16T22:48:39.628Z,18.55
2022-10-16T22:51:07.937Z,19.08
2022-10-16T22:53:35.334Z,20.52
2022-10-16T22:56:02.365Z,27.65
2022-10-16T22:58:29.546Z,23.20
2022-10-16T23:03:23.669Z,18.38
2022-10-16T23:05:50.655Z,17.50
2022-10-16T23:08:17.947Z,19.13
2022-10-16T23:10:47.138Z,17.30
2022-10-16T23:13:14.411Z,17.13
2022-10-16T23:15:44.822Z,17.10
2022-10-16T23:18:12.225Z,17.52
2022-10-16T23:20:40.826Z,16.50
2022-10-16T23:23:08.185Z,16.75
2022-10-16T23:25:35.904Z,17.55
2022-10-16T23:28:03.551Z,14.10
2022-10-16T23:30:30.491Z,17.50
2022-10-16T23:32:57.465Z,14.85
2022-10-16T23:35:24.301Z,14.70
2022-10-16T23:37:51.571Z,12.23
2022-10-16T23:40:19.113Z,18.08
2022-10-16T23:42:46.044Z,11.73
2022-10-16T23:45:12.892Z,13.10
2022-10-16T23:47:41.546Z,15.43
2022-10-16T23:50:09.659Z,9.70
2022-10-16T23:52:36.719Z,13.45
2022-10-16T23:55:04.213Z,13.40
2022-10-16T23:57:31.246Z,9.43
2022-10-16T23:59:58.278Z,10.68
